CYAY

Details ICAO CYAY (YAY)
Name ST ANTHONY
Region Canada
Timezone America/St_Johns (UTC-2.5)
Plans Departing 14
Arriving 13
Stats Elevation 108 ft / 33 m (AMSL)
Location 51.391900° -56.083147°
Runways 1
Magnetic Variation 19.834° W
Sunrise 2018-05-21 07:46:09 UTC / 2018-05-21 05:16:09 Local
Sunset 2018-05-21 23:38:34 UTC / 2018-05-21 21:08:34 Local
Advertisement - Login to hide

Runways

ID Width Length Bearing (true) Bearing (mag) Surface Threshold Offset Overrun Length
10 100 ft / 30 m 3,992 ft / 1,217 m 79.79° 99.62° Asphalt 0 ft / 0 m 0 ft / 0 m
28 100 ft / 30 m 3,992 ft / 1,217 m 259.80° 279.63° Asphalt 0 ft / 0 m 0 ft / 0 m

Map

Weather


0- 5 10 15 20 25 30 35+ Temperature / ° C

Clouds and Precipitation
Forecast for 2018-05-22 00:00 UTC. Updated 4 hours ago

Ground ~20,000 ft ~40,000 ft Winds

METAR

CYAY 220200Z AUTO 04011KT 9SM OVC038 01/M02 A2975 RMK SLP077

TAF

TAF CYAY 220138Z 2202/2214 05008KT P6SM SCT020 BKN070 TEMPO 2202/2206 5SM -SHSN BKN020 BKN070 PROB30 2202/2206 2SM -SHSN FM220600 05012KT P6SM BKN030 BKN070 TEMPO 2206/2208 BKN020 BKN070 FM220800 05012KT P6SM SCT030 SCT070 BECMG 2212/2214 25012G22KT RMK FCST BASED ON AUTO OBS. NXT FCST BY 220800Z

Frequencies

Recorded 118.65 MHz AWOS1
Unicom 122.30 MHz CTAF
Warning: Do not use this data for real-world aviation or navigation. No guarantee of current accuracy is given.